Time;durP1;ratioP1;P1;durP2;ratioP2;P2;SDS_P1;SDS_P2;PMS_P1;PMS_P2;Temp;Humidity;BMP_temperature;BMP_pressure;BME280_temperature;BME280_humidity;BME280_pressure;Samples;Min_cycle;Max_cycle;Signal;HPM_P1;HPM_P2
2022/01/21 00:00:44;;;;;;;5.25;1.60;;;4.30;80.70;;;;;;5066203;28;20024;-81
2022/01/21 00:03:09;;;;;;;5.25;1.55;;;4.40;80.90;;;;;;5068480;28;20056;-81
2022/01/21 00:05:35;;;;;;;3.03;1.60;;;4.40;81.00;;;;;;5071462;28;20514;-80
2022/01/21 00:08:00;;;;;;;5.32;1.30;;;4.40;80.90;;;;;;5067311;28;20032;-81
2022/01/21 00:10:26;;;;;;;7.60;1.40;;;4.40;80.90;;;;;;5065672;28;20055;-81
2022/01/21 00:12:53;;;;;;;7.30;1.40;;;4.40;80.90;;;;;;5067707;28;20032;-81
2022/01/21 00:15:19;;;;;;;6.07;1.40;;;4.40;80.90;;;;;;5063156;28;20044;-81
2022/01/21 00:17:45;;;;;;;5.38;1.42;;;4.40;81.00;;;;;;5069535;28;20035;-81
2022/01/21 00:31:24;;;;;;;6.78;1.35;;;4.40;81.20;;;;;;5072379;28;20042;-81
2022/01/21 00:33:49;;;;;;;7.30;1.80;;;4.40;81.10;;;;;;5066558;28;20057;-81
2022/01/21 00:36:15;;;;;;;6.18;1.70;;;4.40;81.10;;;;;;5065004;28;20431;-81
2022/01/21 00:38:42;;;;;;;6.18;1.40;;;4.40;81.20;;;;;;5067339;28;20036;-81
2022/01/21 00:41:08;;;;;;;4.57;1.13;;;4.40;81.20;;;;;;5063297;28;20074;-80
2022/01/21 00:43:43;;;;;;;4.47;1.13;;;4.40;81.30;;;;;;5068337;28;20031;-81
2022/01/21 00:46:13;;;;;;;4.85;1.40;;;4.40;81.20;;;;;;5065666;28;20371;-82
2022/01/21 00:48:38;;;;;;;6.32;1.60;;;4.40;81.20;;;;;;5068701;28;20090;-82
2022/01/21 00:51:05;;;;;;;5.07;1.60;;;4.40;81.20;;;;;;5060673;28;20028;-82
2022/01/21 00:53:31;;;;;;;4.28;1.40;;;4.40;81.30;;;;;;5062904;28;20028;-82
2022/01/21 00:55:56;;;;;;;5.70;1.45;;;4.40;81.40;;;;;;5067586;28;20033;-82
2022/01/21 00:58:22;;;;;;;7.75;1.50;;;4.40;81.40;;;;;;5069338;28;20016;-82
2022/01/21 01:00:48;;;;;;;5.47;1.40;;;4.40;81.40;;;;;;5070689;28;20483;-83
2022/01/21 01:03:15;;;;;;;7.00;1.70;;;4.40;81.40;;;;;;5067337;28;20028;-80
2022/01/21 01:05:41;;;;;;;6.07;1.63;;;4.40;81.30;;;;;;5065950;28;20032;-81
2022/01/21 01:08:07;;;;;;;6.55;1.35;;;4.40;81.40;;;;;;5066463;28;20032;-81
2022/01/21 01:21:26;;;;;;;6.55;1.40;;;4.30;81.60;;;;;;5068352;28;20039;-81
2022/01/21 01:29:22;;;;;;;5.90;1.30;;;4.30;81.50;;;;;;5072350;28;20081;-81
2022/01/21 01:31:50;;;;;;;5.28;1.60;;;4.40;81.50;;;;;;5069586;28;20116;-83
2022/01/21 01:34:16;;;;;;;6.63;1.48;;;4.40;81.50;;;;;;5064894;28;20132;-81
2022/01/21 01:36:45;;;;;;;6.45;1.70;;;4.40;81.40;;;;;;5065235;28;20631;-81
2022/01/21 01:42:32;;;;;;;7.45;1.60;;;4.40;81.50;;;;;;5060337;28;20541;-81
2022/01/21 01:50:34;;;;;;;4.05;1.50;;;4.30;81.40;;;;;;5058404;28;20036;-82
2022/01/21 01:53:00;;;;;;;5.72;1.67;;;4.30;81.30;;;;;;5057671;28;20095;-82
2022/01/21 01:55:26;;;;;;;6.55;1.70;;;4.30;81.30;;;;;;5067062;28;20108;-81
2022/01/21 01:57:51;;;;;;;4.53;1.50;;;4.30;81.20;;;;;;5069882;28;20063;-82
2022/01/21 02:00:17;;;;;;;4.53;1.48;;;4.30;81.30;;;;;;5069207;28;20020;-82
2022/01/21 02:02:43;;;;;;;4.50;1.58;;;4.30;81.30;;;;;;5066303;28;20039;-82
2022/01/21 02:05:08;;;;;;;5.25;1.88;;;4.30;81.30;;;;;;5068282;28;20029;-82
2022/01/21 02:07:34;;;;;;;7.68;1.92;;;4.30;81.20;;;;;;5069593;28;20395;-81
2022/01/21 02:10:00;;;;;;;8.68;1.70;;;4.30;81.30;;;;;;5065813;28;20395;-80
2022/01/21 02:12:25;;;;;;;5.80;1.50;;;4.30;81.30;;;;;;5062858;28;20382;-80
2022/01/21 02:14:53;;;;;;;7.35;1.85;;;4.30;81.90;;;;;;5067959;28;20090;-79
2022/01/21 02:21:29;;;;;;;7.85;1.48;;;4.30;81.40;;;;;;5060147;28;20021;-80
2022/01/21 02:22:50;;;;;;;6.55;1.80;;;4.30;81.40;;;;;;5069499;28;20043;-80
2022/01/21 02:25:17;;;;;;;6.75;1.92;;;4.20;81.30;;;;;;5066195;28;20024;-83
2022/01/21 02:27:45;;;;;;;6.63;1.50;;;4.20;81.30;;;;;;5074335;28;20032;-82
2022/01/21 02:30:18;;;;;;;5.47;1.40;;;4.20;81.40;;;;;;5064187;28;20035;-82
2022/01/21 02:32:45;;;;;;;;;;;4.20;81.50;;;;;;5067778;28;20025;-82
2022/01/21 02:35:11;;;;;;;7.18;1.42;;;4.20;81.30;;;;;;5066344;28;19924;-82
2022/01/21 02:37:38;;;;;;;7.55;1.50;;;4.20;81.40;;;;;;5067079;28;20024;-82
2022/01/21 02:40:04;;;;;;;9.10;1.95;;;4.20;81.40;;;;;;5067734;28;20081;-82
2022/01/21 02:42:30;;;;;;;5.10;1.52;;;4.10;81.40;;;;;;5062026;28;20035;-82
2022/01/21 02:44:55;;;;;;;6.18;1.55;;;4.10;81.50;;;;;;5069337;28;20025;-82
2022/01/21 02:47:21;;;;;;;5.47;1.60;;;4.10;81.60;;;;;;5060245;28;20047;-81
2022/01/21 02:49:46;;;;;;;5.72;1.60;;;4.10;81.50;;;;;;5067815;28;20038;-80
2022/01/21 02:52:14;;;;;;;5.85;1.52;;;4.10;81.50;;;;;;5065825;28;20028;-79
2022/01/21 02:54:39;;;;;;;6.40;1.70;;;4.00;81.50;;;;;;5064316;28;20047;-80
2022/01/21 02:57:07;;;;;;;6.40;1.35;;;4.00;81.50;;;;;;5058982;28;20017;-81
2022/01/21 02:59:33;;;;;;;5.50;1.50;;;4.00;81.50;;;;;;5070261;28;20067;-81
2022/01/21 03:02:00;;;;;;;7.20;1.60;;;3.90;81.50;;;;;;5071572;28;20048;-80
2022/01/21 03:04:38;;;;;;;4.35;1.40;;;3.90;81.60;;;;;;5073478;28;20015;-81
2022/01/21 03:07:04;;;;;;;5.35;1.77;;;3.90;81.70;;;;;;5068438;28;20028;-81
2022/01/21 03:09:29;;;;;;;6.28;1.48;;;3.90;81.70;;;;;;5068037;28;20066;-81
2022/01/21 03:11:55;;;;;;;5.10;1.60;;;3.90;81.80;;;;;;5073421;28;20016;-81
2022/01/21 03:14:20;;;;;;;5.22;1.45;;;3.90;81.80;;;;;;5061962;28;20499;-81
2022/01/21 03:16:46;;;;;;;4.55;1.30;;;3.90;81.80;;;;;;5059500;28;20622;-80
2022/01/21 03:19:12;;;;;;;7.20;1.55;;;3.90;81.80;;;;;;5064172;28;20099;-80
2022/01/21 03:21:38;;;;;;;5.22;1.25;;;3.90;81.90;;;;;;5069987;28;20031;-82
2022/01/21 03:24:04;;;;;;;5.43;1.67;;;4.00;81.80;;;;;;5071830;28;20378;-81
2022/01/21 03:26:29;;;;;;;5.25;1.42;;;4.00;81.70;;;;;;5082689;28;20035;-81
2022/01/21 03:29:01;;;;;;;2.72;1.33;;;4.00;81.60;;;;;;5061981;28;20017;-80
2022/01/21 03:31:26;;;;;;;5.82;1.38;;;4.00;81.60;;;;;;5071806;28;20033;-80
2022/01/21 03:33:52;;;;;;;6.20;1.80;;;4.00;81.70;;;;;;5065011;28;20032;-81
2022/01/21 03:36:19;;;;;;;4.20;1.40;;;3.90;81.60;;;;;;5066948;28;20135;-81
2022/01/21 03:38:45;;;;;;;4.15;1.70;;;3.90;81.50;;;;;;5071865;28;20048;-80
2022/01/21 03:41:10;;;;;;;5.68;1.60;;;3.90;81.50;;;;;;5069466;28;20051;-81
2022/01/21 03:43:36;;;;;;;5.85;1.63;;;4.00;81.70;;;;;;5067894;28;20086;-81
2022/01/21 03:46:03;;;;;;;5.72;1.50;;;4.00;81.60;;;;;;5062685;28;20120;-81
2022/01/21 03:48:29;;;;;;;3.67;1.52;;;3.90;81.50;;;;;;5067069;28;20078;-81
2022/01/21 03:50:54;;;;;;;6.43;1.60;;;4.00;81.60;;;;;;5060366;28;20021;-81
2022/01/21 03:53:20;;;;;;;7.45;1.60;;;4.00;81.60;;;;;;5067770;28;20024;-81
2022/01/21 03:55:46;;;;;;;4.68;1.27;;;4.00;81.50;;;;;;5063656;28;20381;-81
2022/01/21 03:58:13;;;;;;;4.82;1.50;;;4.00;81.60;;;;;;5067514;28;20028;-81
2022/01/21 04:00:50;;;;;;;4.90;1.30;;;3.90;81.60;;;;;;5071378;28;20461;-82
2022/01/21 04:03:16;;;;;;;7.45;1.65;;;3.90;81.60;;;;;;5066976;28;20028;-81
2022/01/21 04:05:42;;;;;;;4.03;1.30;;;3.90;81.60;;;;;;5067576;28;20014;-81
2022/01/21 04:08:09;;;;;;;4.53;1.30;;;3.90;81.60;;;;;;5062376;28;20030;-80
2022/01/21 04:10:35;;;;;;;5.07;1.55;;;3.90;81.70;;;;;;5065631;28;20420;-81
2022/01/21 04:13:03;;;;;;;7.40;1.55;;;3.90;81.60;;;;;;5068827;28;20017;-80
2022/01/21 04:15:28;;;;;;;5.68;1.58;;;3.90;81.70;;;;;;5057095;28;20064;-80
2022/01/21 04:17:54;;;;;;;6.85;1.65;;;3.90;81.70;;;;;;5066122;28;20472;-80
2022/01/21 04:20:20;;;;;;;5.63;1.30;;;3.80;81.60;;;;;;5068344;28;20056;-80
2022/01/21 04:22:45;;;;;;;4.70;1.38;;;3.80;81.60;;;;;;5067206;28;20016;-80
2022/01/21 04:25:11;;;;;;;5.32;1.63;;;3.80;81.70;;;;;;5066869;28;20028;-80
2022/01/21 04:27:37;;;;;;;6.25;1.55;;;3.80;81.70;;;;;;5085529;28;20016;-79
2022/01/21 04:30:08;;;;;;;4.35;1.40;;;3.80;82.30;;;;;;5077925;28;20024;-79
2022/01/21 04:32:33;;;;;;;6.60;1.58;;;3.80;81.70;;;;;;5070086;28;20024;-79
2022/01/21 04:34:59;;;;;;;4.57;1.30;;;3.80;81.60;;;;;;5067513;28;20372;-79
2022/01/21 04:37:25;;;;;;;3.65;1.35;;;3.80;81.60;;;;;;5064953;28;20035;-79
2022/01/21 04:40:00;;;;;;;8.95;1.85;;;3.80;81.70;;;;;;5067555;28;20051;-80
2022/01/21 04:47:54;;;;;;;4.78;1.50;;;3.70;81.60;;;;;;5063758;28;20027;-80
2022/01/21 04:50:20;;;;;;;5.05;1.85;;;3.70;81.70;;;;;;5071599;28;20120;-78
2022/01/21 04:52:45;;;;;;;4.30;1.58;;;3.70;81.70;;;;;;5067694;28;20027;-79
2022/01/21 04:55:11;;;;;;;7.70;1.88;;;3.70;81.70;;;;;;5066507;28;20044;-81
2022/01/21 04:57:37;;;;;;;5.13;1.30;;;3.60;81.70;;;;;;5069721;28;20079;-81
2022/01/21 05:00:06;;;;;;;6.13;1.50;;;3.70;81.80;;;;;;5070161;28;20059;-81
2022/01/21 05:02:34;;;;;;;4.93;1.50;;;3.70;81.80;;;;;;5067174;28;20059;-81
2022/01/21 05:04:59;;;;;;;3.08;1.38;;;3.70;81.80;;;;;;5068676;28;20035;-81
2022/01/21 05:07:27;;;;;;;4.32;1.48;;;3.70;81.70;;;;;;5071247;28;20021;-80
2022/01/21 05:09:52;;;;;;;5.63;1.23;;;3.70;81.70;;;;;;5065620;28;20032;-82
2022/01/21 05:12:21;;;;;;;5.50;1.63;;;3.70;81.70;;;;;;5059543;28;20021;-78
2022/01/21 05:17:22;;;;;;;6.15;1.70;;;3.70;81.70;;;;;;5059393;28;20028;-79
2022/01/21 05:19:48;;;;;;;5.25;1.42;;;3.60;81.80;;;;;;5069525;28;20027;-79
2022/01/21 05:22:14;;;;;;;5.95;1.50;;;3.60;81.80;;;;;;5070727;28;20398;-79
2022/01/21 05:24:39;;;;;;;4.63;1.63;;;3.60;81.90;;;;;;5059157;28;20126;-79
2022/01/21 05:27:06;;;;;;;2.78;1.10;;;3.60;81.90;;;;;;5062761;28;20028;-78
2022/01/21 05:29:33;;;;;;;4.95;1.40;;;3.60;81.90;;;;;;5076016;28;20016;-79
2022/01/21 05:32:00;;;;;;;3.60;1.10;;;3.70;81.90;;;;;;5061647;28;20055;-80
2022/01/21 05:34:26;;;;;;;6.95;1.55;;;3.70;81.80;;;;;;5067913;28;20129;-80
2022/01/21 05:36:52;;;;;;;4.82;1.40;;;3.70;81.80;;;;;;5068255;28;20540;-80
2022/01/21 05:39:18;;;;;;;2.67;1.10;;;3.70;81.80;;;;;;5067937;28;20175;-79
2022/01/21 05:41:48;;;;;;;3.97;1.20;;;3.70;81.80;;;;;;5068998;28;20036;-79
2022/01/21 05:47:07;;;;;;;;;;;3.70;81.80;;;;;;5060621;28;20064;-79
2022/01/21 05:49:35;;;;;;;4.28;1.15;;;3.70;81.80;;;;;;5059816;28;19913;-79
2022/01/21 05:52:15;;;;;;;3.97;1.40;;;3.60;82.40;;;;;;5066048;28;20364;-78
2022/01/21 05:54:43;;;;;;;4.90;1.13;;;3.60;81.90;;;;;;5064772;28;20032;-79
2022/01/21 05:57:11;;;;;;;6.13;1.52;;;3.60;81.90;;;;;;5060769;28;20565;-81
2022/01/21 05:59:37;;;;;;;4.55;1.27;;;3.60;82.00;;;;;;5064891;28;20410;-80
2022/01/21 06:02:05;;;;;;;3.38;1.20;;;3.60;82.00;;;;;;5063931;28;20016;-81
2022/01/21 06:04:32;;;;;;;6.70;1.42;;;3.70;82.00;;;;;;5062609;28;20025;-80
2022/01/21 06:06:58;;;;;;;3.67;1.30;;;3.70;81.90;;;;;;5061825;28;20070;-79
2022/01/21 06:09:23;;;;;;;4.28;1.20;;;3.70;81.90;;;;;;5067897;28;20032;-79
2022/01/21 06:11:51;;;;;;;2.58;1.30;;;3.70;81.90;;;;;;5068554;28;20035;-80
2022/01/21 06:14:17;;;;;;;3.78;1.20;;;3.70;81.80;;;;;;5063143;28;20037;-81
2022/01/21 06:16:43;;;;;;;3.65;1.35;;;3.70;81.80;;;;;;5062275;28;20021;-79
2022/01/21 06:19:08;;;;;;;4.50;1.30;;;3.60;81.80;;;;;;5062614;28;20458;-80
2022/01/21 06:21:34;;;;;;;3.92;1.40;;;3.70;81.90;;;;;;5057904;28;20046;-79
2022/01/21 06:23:59;;;;;;;4.93;1.30;;;3.70;81.90;;;;;;5067298;28;20036;-81
2022/01/21 06:26:25;;;;;;;5.22;1.77;;;3.70;81.90;;;;;;5064926;28;20027;-79
2022/01/21 06:28:50;;;;;;;3.15;1.10;;;3.70;81.90;;;;;;5069115;28;20974;-78
2022/01/21 06:31:16;;;;;;;4.10;1.20;;;3.70;81.90;;;;;;5067891;28;20487;-79
2022/01/21 06:33:41;;;;;;;3.85;1.30;;;3.70;81.90;;;;;;5068949;28;20027;-81
2022/01/21 06:36:07;;;;;;;3.08;1.17;;;3.70;81.90;;;;;;5068104;28;20103;-81
2022/01/21 06:38:35;;;;;;;3.65;1.27;;;3.70;82.00;;;;;;5066506;28;20023;-81
2022/01/21 06:41:01;;;;;;;5.55;1.38;;;3.70;82.00;;;;;;5075140;28;20105;-80
2022/01/21 06:43:27;;;;;;;3.55;1.13;;;3.70;81.90;;;;;;5071818;28;20051;-81
2022/01/21 06:45:52;;;;;;;2.17;1.10;;;3.80;82.00;;;;;;5074039;28;20017;-82
2022/01/21 06:48:18;;;;;;;4.15;1.15;;;3.80;82.00;;;;;;5074159;28;20024;-81
2022/01/21 06:50:43;;;;;;;4.88;1.30;;;3.80;82.10;;;;;;5073763;28;20025;-81
2022/01/21 06:53:09;;;;;;;3.50;1.10;;;3.80;82.00;;;;;;5068041;28;20051;-82
2022/01/21 06:55:36;;;;;;;4.95;1.13;;;3.90;82.00;;;;;;5081639;28;20032;-81
2022/01/21 06:58:02;;;;;;;3.47;1.27;;;3.90;81.90;;;;;;5071985;28;20446;-81
2022/01/21 07:00:28;;;;;;;6.72;1.40;;;4.00;81.90;;;;;;5070881;28;20028;-81
2022/01/21 07:02:54;;;;;;;4.90;1.20;;;4.00;82.00;;;;;;5072518;28;20024;-81
2022/01/21 07:05:22;;;;;;;4.03;1.25;;;4.00;81.90;;;;;;5068173;28;20044;-82
2022/01/21 07:07:48;;;;;;;5.97;1.73;;;4.10;81.90;;;;;;5061489;28;20383;-84
2022/01/21 07:10:15;;;;;;;3.70;1.35;;;4.00;81.80;;;;;;5058608;28;20019;-81
2022/01/21 07:12:42;;;;;;;3.88;1.45;;;4.00;81.80;;;;;;5061405;28;20034;-80
2022/01/21 07:15:09;;;;;;;2.10;1.00;;;4.00;81.90;;;;;;5069706;28;20039;-80
2022/01/21 07:17:35;;;;;;;2.90;1.20;;;4.00;81.90;;;;;;5068284;28;20025;-80
2022/01/21 07:20:02;;;;;;;4.30;1.25;;;4.10;82.00;;;;;;5075196;28;20653;-81
2022/01/21 07:22:27;;;;;;;3.50;1.05;;;4.00;81.90;;;;;;5076930;28;20070;-81
2022/01/21 07:24:53;;;;;;;2.42;1.35;;;4.00;81.90;;;;;;5074382;28;20417;-81
2022/01/21 07:27:19;;;;;;;4.75;1.40;;;4.00;82.00;;;;;;5069413;28;20020;-80
2022/01/21 07:29:44;;;;;;;5.35;1.50;;;4.00;82.00;;;;;;5073286;28;20024;-81
2022/01/21 07:32:10;;;;;;;3.88;1.50;;;4.00;82.10;;;;;;5068906;28;20034;-82
2022/01/21 07:34:36;;;;;;;3.75;1.50;;;4.00;82.10;;;;;;5079130;28;20032;-79
2022/01/21 07:37:02;;;;;;;5.45;1.60;;;4.00;82.10;;;;;;5068401;28;20375;-80
2022/01/21 07:39:27;;;;;;;4.03;1.33;;;4.00;82.20;;;;;;5073732;28;20029;-81
2022/01/21 07:41:53;;;;;;;4.65;1.40;;;4.00;82.30;;;;;;5080805;28;20021;-79
2022/01/21 07:44:19;;;;;;;6.03;1.23;;;3.90;82.30;;;;;;5077044;28;20012;-82
2022/01/21 07:46:46;;;;;;;3.92;1.10;;;4.00;82.40;;;;;;5078553;28;20111;-83
2022/01/21 07:49:12;;;;;;;3.80;1.40;;;4.00;82.40;;;;;;5066948;28;20940;-80
2022/01/21 07:51:38;;;;;;;6.18;1.42;;;4.00;82.40;;;;;;5068850;28;20108;-80
2022/01/21 07:54:04;;;;;;;2.17;0.98;;;4.00;82.40;;;;;;5066041;28;20630;-83
2022/01/21 07:56:33;;;;;;;3.58;1.42;;;4.00;82.30;;;;;;5073594;28;20057;-79
2022/01/21 07:58:59;;;;;;;2.95;1.20;;;4.00;82.30;;;;;;5071756;28;20020;-81
2022/01/21 08:01:26;;;;;;;3.30;1.08;;;4.00;82.40;;;;;;5075356;28;20171;-80
2022/01/21 08:03:52;;;;;;;2.38;1.10;;;4.00;82.50;;;;;;5077895;28;20442;-82
2022/01/21 08:06:17;;;;;;;4.57;1.40;;;4.00;82.50;;;;;;5074629;28;20024;-82
2022/01/21 08:08:43;;;;;;;5.22;1.60;;;4.00;82.50;;;;;;5072018;28;20028;-83
2022/01/21 08:11:09;;;;;;;5.90;1.40;;;4.10;82.70;;;;;;5064537;28;20082;-83
2022/01/21 08:13:34;;;;;;;4.88;1.13;;;4.10;82.70;;;;;;5066869;28;20028;-82
2022/01/21 08:16:00;;;;;;;4.68;1.50;;;4.10;82.70;;;;;;5059296;28;20389;-82
2022/01/21 08:18:26;;;;;;;2.80;1.30;;;4.10;82.60;;;;;;5067142;28;20056;-82
2022/01/21 08:20:52;;;;;;;5.65;1.40;;;4.10;82.60;;;;;;5069766;28;20012;-82
2022/01/21 08:23:17;;;;;;;5.68;1.40;;;4.10;82.60;;;;;;5070097;28;20115;-82
2022/01/21 08:25:44;;;;;;;3.80;1.15;;;4.10;82.60;;;;;;5070613;28;20049;-83
2022/01/21 08:28:10;;;;;;;3.83;1.65;;;4.10;82.70;;;;;;5069339;28;20031;-82
2022/01/21 08:30:36;;;;;;;4.57;1.40;;;4.20;82.70;;;;;;5064516;28;20039;-82
2022/01/21 08:33:03;;;;;;;3.45;1.33;;;4.20;82.70;;;;;;5062993;28;20016;-82
2022/01/21 08:35:30;;;;;;;3.85;1.60;;;4.30;82.70;;;;;;5066749;28;20074;-83
2022/01/21 08:37:56;;;;;;;3.63;1.30;;;4.20;82.60;;;;;;5061645;28;20539;-82
2022/01/21 08:40:23;;;;;;;3.40;1.30;;;4.30;82.50;;;;;;5068568;28;20111;-82
2022/01/21 08:42:49;;;;;;;4.57;1.30;;;4.40;82.50;;;;;;5069128;28;20055;-80
2022/01/21 08:45:15;;;;;;;5.70;1.42;;;4.40;83.10;;;;;;5065099;28;20593;-82
2022/01/21 08:47:42;;;;;;;4.88;1.40;;;4.40;82.50;;;;;;5068008;28;20034;-81
2022/01/21 08:50:11;;;;;;;5.75;1.77;;;4.40;82.50;;;;;;5078509;28;20024;-79
2022/01/21 08:52:37;;;;;;;3.78;1.50;;;4.40;82.50;;;;;;5067498;28;20017;-82
2022/01/21 08:55:05;;;;;;;5.20;1.65;;;4.50;82.60;;;;;;5066666;28;20391;-82
2022/01/21 08:57:32;;;;;;;4.35;1.60;;;4.50;82.50;;;;;;5061477;28;20044;-82
2022/01/21 08:59:58;;;;;;;4.20;1.60;;;4.50;82.40;;;;;;5062748;28;20404;-84
2022/01/21 09:02:24;;;;;;;5.10;1.30;;;4.60;82.50;;;;;;5069884;28;20025;-82
2022/01/21 09:04:50;;;;;;;5.75;1.77;;;4.60;82.50;;;;;;5074708;28;20035;-82
2022/01/21 09:07:15;;;;;;;5.68;1.55;;;4.60;82.50;;;;;;5073380;28;20043;-84
2022/01/21 09:09:41;;;;;;;4.13;1.55;;;4.60;82.50;;;;;;5068525;28;20518;-84
2022/01/21 09:12:06;;;;;;;3.55;1.50;;;4.70;82.50;;;;;;5059108;28;20043;-79
2022/01/21 09:14:33;;;;;;;4.25;1.50;;;4.70;82.50;;;;;;5065005;28;20051;-77
2022/01/21 09:16:59;;;;;;;5.18;1.42;;;4.70;82.50;;;;;;5065181;28;20024;-76
2022/01/21 09:19:25;;;;;;;4.63;1.58;;;4.80;82.50;;;;;;5082326;28;20023;-78
2022/01/21 09:21:52;;;;;;;4.72;1.55;;;4.90;82.40;;;;;;5062315;28;20031;-80
2022/01/21 09:24:19;;;;;;;3.10;1.50;;;5.00;82.40;;;;;;5069265;28;20024;-77
2022/01/21 09:26:45;;;;;;;5.07;1.30;;;5.00;82.20;;;;;;5069548;28;20070;-78
2022/01/21 09:29:11;;;;;;;4.57;1.40;;;5.00;82.20;;;;;;5072106;28;20024;-80
2022/01/21 09:31:37;;;;;;;4.13;1.70;;;5.10;82.20;;;;;;5079312;28;20423;-78
2022/01/21 09:34:05;;;;;;;5.00;1.40;;;5.20;82.20;;;;;;5064243;28;20029;-77
2022/01/21 09:36:30;;;;;;;4.60;1.50;;;5.20;82.10;;;;;;5069641;28;20481;-79
2022/01/21 09:38:56;;;;;;;4.45;1.50;;;5.30;82.00;;;;;;5068231;28;20020;-81
2022/01/21 09:41:22;;;;;;;4.05;1.50;;;5.30;82.00;;;;;;5068633;28;20490;-81
2022/01/21 09:43:49;;;;;;;3.90;1.20;;;5.30;82.10;;;;;;5069903;28;20021;-84
2022/01/21 09:46:15;;;;;;;5.32;1.45;;;5.30;81.90;;;;;;5068001;28;20445;-80
2022/01/21 09:49:05;;;;;;;4.32;1.45;;;5.30;82.00;;;;;;5068976;28;20025;-80
2022/01/21 09:51:32;;;;;;;4.50;1.33;;;5.40;82.00;;;;;;5060782;28;20372;-81
2022/01/21 09:54:06;;;;;;;4.75;1.50;;;5.40;82.00;;;;;;5076812;28;20040;-80
2022/01/21 09:56:34;;;;;;;5.00;1.80;;;5.50;82.00;;;;;;5066747;28;20021;-76
2022/01/21 09:59:00;;;;;;;5.68;1.63;;;5.50;82.00;;;;;;5078040;28;20416;-75
2022/01/21 10:01:26;;;;;;;7.65;1.98;;;5.50;81.90;;;;;;5078106;28;20099;-77
2022/01/21 10:03:53;;;;;;;5.60;1.70;;;5.50;81.80;;;;;;5074975;28;20040;-80
2022/01/21 10:06:24;;;;;;;6.32;1.80;;;5.60;81.90;;;;;;5069161;28;20021;-81
2022/01/21 10:08:53;;;;;;;4.78;1.85;;;5.60;81.90;;;;;;5062885;28;20441;-83
2022/01/21 10:11:20;;;;;;;4.88;1.45;;;5.60;81.80;;;;;;5068760;28;20099;-80
2022/01/21 10:13:48;;;;;;;7.25;1.85;;;5.70;81.90;;;;;;5068964;28;20028;-78
2022/01/21 10:16:13;;;;;;;6.15;1.92;;;5.70;81.80;;;;;;5068538;28;20024;-80
2022/01/21 10:18:58;;;;;;;5.53;1.85;;;5.70;81.70;;;;;;5068914;28;20116;-77
2022/01/21 10:21:30;;;;;;;5.75;1.60;;;5.80;82.40;;;;;;5058266;28;20399;-78
2022/01/21 10:24:10;;;;;;;4.27;1.47;;;5.80;81.70;;;;;;5050615;28;20029;-81
2022/01/21 10:26:46;;;;;;;7.63;1.90;;;5.90;81.80;;;;;;5075633;28;20353;-78
2022/01/21 10:29:13;;;;;;;5.15;1.75;;;5.90;81.70;;;;;;5067128;28;20023;-78
2022/01/21 10:32:00;;;;;;;5.30;1.60;;;6.00;81.60;;;;;;5065710;28;20364;-79
2022/01/21 10:34:35;;;;;;;4.95;1.80;;;6.10;81.50;;;;;;5063528;28;20048;-79
2022/01/21 10:37:07;;;;;;;4.53;1.65;;;6.10;81.40;;;;;;5061671;28;20475;-80
2022/01/21 10:39:57;;;;;;;7.72;1.90;;;6.10;81.40;;;;;;5068257;28;20206;-80
2022/01/21 10:42:24;;;;;;;5.20;2.00;;;6.10;81.50;;;;;;5059548;28;20521;-79
2022/01/21 10:44:50;;;;;;;6.60;1.58;;;6.10;81.50;;;;;;5060022;28;21337;-80
2022/01/21 10:47:17;;;;;;;6.40;2.10;;;6.10;81.40;;;;;;5063459;28;20036;-80
2022/01/21 10:49:43;;;;;;;7.80;1.75;;;6.20;81.50;;;;;;5066894;28;20032;-79
2022/01/21 10:52:11;;;;;;;6.93;1.75;;;6.20;81.50;;;;;;5055856;28;20055;-78
2022/01/21 10:54:51;;;;;;;6.65;1.90;;;6.40;81.40;;;;;;5058179;28;20127;-79
2022/01/21 10:57:19;;;;;;;5.50;1.80;;;6.40;81.40;;;;;;5060056;28;20029;-80
2022/01/21 10:59:52;;;;;;;6.97;2.13;;;6.50;81.50;;;;;;5061964;28;20020;-79
2022/01/21 11:02:36;;;;;;;6.22;1.60;;;6.50;81.30;;;;;;5062554;28;20021;-78
2022/01/21 11:05:11;;;;;;;7.50;2.35;;;6.60;81.40;;;;;;5058496;28;20115;-80
2022/01/21 11:07:57;;;;;;;4.55;1.58;;;6.60;81.50;;;;;;5064062;28;20471;-80
2022/01/21 11:10:32;;;;;;;7.32;1.85;;;6.70;81.60;;;;;;5060644;28;20488;-80
2022/01/21 11:13:02;;;;;;;5.30;1.70;;;6.70;81.50;;;;;;5057815;28;20020;-80
2022/01/21 11:15:48;;;;;;;10.68;2.20;;;6.70;81.60;;;;;;5069035;28;20078;-80
2022/01/21 11:18:17;;;;;;;9.68;2.40;;;6.70;81.60;;;;;;5076978;28;20387;-81
2022/01/21 11:20:46;;;;;;;6.97;1.90;;;6.70;81.70;;;;;;5081504;28;20103;-80
2022/01/21 11:23:12;;;;;;;4.32;1.88;;;6.70;81.80;;;;;;5083049;28;20103;-80
2022/01/21 11:25:47;;;;;;;6.20;2.00;;;6.70;81.90;;;;;;5076265;28;20028;-80
2022/01/21 11:28:20;;;;;;;6.18;1.70;;;6.70;81.90;;;;;;5079021;28;20032;-80
2022/01/21 11:30:46;;;;;;;6.72;2.08;;;6.70;82.00;;;;;;5083028;28;20024;-79
2022/01/21 11:33:12;;;;;;;7.95;1.80;;;6.70;82.00;;;;;;5082454;28;20016;-80
2022/01/21 11:35:38;;;;;;;7.63;2.00;;;6.80;82.00;;;;;;5082590;28;20085;-79
2022/01/21 11:38:09;;;;;;;6.85;1.83;;;6.90;82.00;;;;;;5081605;28;20374;-79
2022/01/21 11:40:35;;;;;;;5.35;1.90;;;6.90;82.00;;;;;;5069241;28;20059;-79
2022/01/21 11:43:06;;;;;;;7.25;2.33;;;6.90;82.00;;;;;;5068671;28;20016;-79
2022/01/21 11:46:04;;;;;;;4.60;1.90;;;6.90;82.10;;;;;;5064183;28;20028;-78
2022/01/21 11:48:52;;;;;;;6.07;1.90;;;7.00;82.20;;;;;;5063559;28;20063;-78
2022/01/21 11:51:39;;;;;;;4.93;1.60;;;7.00;82.20;;;;;;5066760;28;20043;-78
2022/01/21 11:54:07;;;;;;;5.68;1.73;;;7.00;82.20;;;;;;5067076;28;20071;-79
2022/01/21 11:56:57;;;;;;;9.55;1.83;;;7.00;82.20;;;;;;5077843;28;20033;-79
2022/01/21 11:59:34;;;;;;;3.50;1.35;;;7.00;82.30;;;;;;5064344;28;20020;-79
2022/01/21 12:02:15;;;;;;;5.20;1.80;;;7.00;82.30;;;;;;5054712;28;20162;-80
2022/01/21 12:04:45;;;;;;;5.30;1.70;;;7.00;82.40;;;;;;5063295;28;20028;-80
2022/01/21 12:07:44;;;;;;;5.03;1.42;;;7.00;82.40;;;;;;5063464;28;20049;-79
2022/01/21 12:10:21;;;;;;;9.70;2.15;;;7.10;82.60;;;;;;5064903;28;20087;-80
2022/01/21 12:12:55;;;;;;;3.58;1.63;;;7.10;82.60;;;;;;5068917;28;20044;-80
2022/01/21 12:15:39;;;;;;;4.28;1.42;;;7.10;82.70;;;;;;5066155;28;20036;-80
2022/01/21 12:18:09;;;;;;;6.68;1.77;;;7.10;82.70;;;;;;5058940;28;20059;-79
2022/01/21 12:20:35;;;;;;;6.30;1.63;;;7.10;82.80;;;;;;5065842;28;20045;-80
2022/01/21 12:23:12;;;;;;;6.00;1.90;;;7.10;82.80;;;;;;5060256;28;20066;-80
2022/01/21 12:26:16;;;;;;;4.40;1.55;;;7.10;82.90;;;;;;5063066;28;20551;-80
2022/01/21 12:28:43;;;;;;;7.13;2.00;;;7.20;82.80;;;;;;5072193;28;20024;-79
2022/01/21 12:31:11;;;;;;;8.98;2.08;;;7.20;82.70;;;;;;5078234;28;20028;-79
2022/01/21 12:33:57;;;;;;;5.70;1.77;;;7.30;82.90;;;;;;5062864;28;20068;-80
2022/01/21 12:36:26;;;;;;;3.65;1.50;;;7.30;82.80;;;;;;5076995;28;20040;-79
2022/01/21 12:41:17;;;;;;;7.97;1.67;;;7.40;82.90;;;;;;5068870;28;20029;-79
2022/01/21 12:43:52;;;;;;;6.93;1.70;;;7.40;82.90;;;;;;5070979;28;20388;-80
2022/01/21 12:46:38;;;;;;;6.07;1.50;;;7.40;82.80;;;;;;5068592;28;20039;-81
2022/01/21 12:49:32;;;;;;;5.82;1.50;;;7.50;82.80;;;;;;5057545;28;20028;-78
2022/01/21 12:57:30;;;;;;;8.88;2.33;;;7.60;82.80;;;;;;5059114;28;20093;-79
2022/01/21 12:59:58;;;;;;;6.65;1.80;;;7.60;82.70;;;;;;5059095;28;20025;-79
2022/01/21 13:02:25;;;;;;;7.75;1.80;;;7.60;82.80;;;;;;5065502;28;20048;-80
2022/01/21 13:05:15;;;;;;;8.27;1.65;;;7.60;82.90;;;;;;5062247;28;20031;-78
2022/01/21 13:08:12;;;;;;;6.72;1.70;;;7.60;82.90;;;;;;5069379;28;20028;-78
2022/01/21 13:10:39;;;;;;;5.72;1.73;;;7.60;82.90;;;;;;5060724;28;20034;-78
2022/01/21 13:15:46;;;;;;;8.38;2.00;;;7.70;83.00;;;;;;5069447;28;20036;-79
2022/01/21 13:18:21;;;;;;;8.82;2.03;;;7.70;82.90;;;;;;5067047;28;20032;-79
2022/01/21 13:20:53;;;;;;;11.50;1.95;;;7.70;82.90;;;;;;5065535;28;20498;-80
2022/01/21 13:23:30;;;;;;;8.95;2.00;;;7.70;82.90;;;;;;5066763;28;20487;-78
2022/01/21 13:26:31;;;;;;;6.05;1.65;;;7.70;82.90;;;;;;5064553;28;20021;-81
2022/01/21 13:29:13;;;;;;;9.38;1.70;;;7.70;82.90;;;;;;5041732;28;20033;-78
2022/01/21 13:31:47;;;;;;;8.77;2.00;;;7.70;82.90;;;;;;5072416;28;20020;-80
2022/01/21 13:34:17;;;;;;;5.85;1.85;;;7.70;83.00;;;;;;5077718;28;20059;-80
2022/01/21 13:36:47;;;;;;;6.05;1.80;;;7.70;83.00;;;;;;5062090;28;20541;-80
2022/01/21 13:39:34;;;;;;;5.50;1.80;;;7.70;82.90;;;;;;5077348;28;20028;-81
2022/01/21 13:42:20;;;;;;;5.88;1.85;;;7.80;83.00;;;;;;5064016;28;20028;-80
2022/01/21 13:44:54;;;;;;;7.75;1.70;;;7.80;82.90;;;;;;5063525;28;20107;-79
2022/01/21 13:47:33;;;;;;;8.95;1.73;;;7.70;82.80;;;;;;5067246;28;20547;-86
2022/01/21 13:50:17;;;;;;;9.32;1.80;;;7.80;82.90;;;;;;5055862;28;20037;-86
2022/01/21 13:52:53;;;;;;;6.85;1.80;;;7.80;82.80;;;;;;5064595;28;20018;-83
2022/01/21 13:55:43;;;;;;;7.88;1.77;;;7.80;82.80;;;;;;5059795;28;20119;-87
2022/01/21 13:58:13;;;;;;;5.38;1.63;;;7.80;82.80;;;;;;5063364;28;20032;-83
2022/01/21 14:00:44;;;;;;;8.70;1.80;;;7.80;82.70;;;;;;5070754;28;20036;-87
2022/01/21 14:03:22;;;;;;;6.85;1.55;;;7.80;82.70;;;;;;5073043;28;20105;-91
2022/01/21 14:05:52;;;;;;;5.65;1.60;;;7.90;82.70;;;;;;5065580;28;20013;-85
2022/01/21 14:08:26;;;;;;;6.05;1.60;;;7.90;82.60;;;;;;5071316;28;20036;-85